Date,TemperatureHighF,TemperatureAvgF,TemperatureLowF,DewpointHighF,DewpointAvgF,DewpointLowF,HumidityHigh,HumidityAvg,HumidityLow,PressureMaxIn,PressureMinIn,WindSpeedMaxMPH,WindSpeedAvgMPH,GustSpeedMaxMPH,PrecipitationSumIn
2013-11-1,45.5,41.3,37.3,44.0,40.0,36.0,96,95,92,29.76,29.14,3,0,0,0.35
2013-11-2,38.7,37.1,34.7,36.0,33.5,30.0,95,87,73,30.19,29.76,6,0,0,0.07
2013-11-3,44.9,37.7,31.5,37.0,31.9,27.0,91,80,62,30.34,30.20,2,0,0,0.01
2013-11-4,48.4,45.7,41.9,43.0,40.5,37.0,86,82,76,30.24,29.99,10,2,0,0.00
2013-11-5,52.1,43.8,32.9,43.0,35.0,28.0,93,74,40,30.23,30.03,4,0,0,0.20
2013-11-6,39.5,36.0,33.5,37.0,32.8,27.0,95,88,77,30.04,29.84,7,1,0,0.68
2013-11-7,36.9,33.6,32.7,31.0,29.0,27.0,89,83,74,30.14,30.04,2,0,0,0.01
2013-11-8,41.1,35.4,32.2,32.0,26.8,22.0,90,72,47,30.21,29.93,4,0,0,0.00
2013-11-9,39.3,37.8,34.9,37.0,35.3,32.0,94,90,86,29.91,29.60,4,1,0,0.28
2013-11-10,37.9,35.6,33.4,34.0,31.1,28.0,94,84,73,30.21,29.84,3,0,0,0.08
2013-11-11,37.3,26.1,22.9,32.0,20.9,15.0,91,81,65,30.54,30.00,3,0,0,0.00
2013-11-12,28.4,23.1,18.6,17.0,14.3,12.0,80,69,60,30.65,30.43,3,0,0,0.00
2013-11-13,47.9,34.0,16.6,33.0,22.5,13.0,84,64,53,30.43,29.74,6,1,0,0.11
2013-11-14,44.0,39.9,35.9,35.0,32.4,31.0,83,75,67,29.81,29.76,2,0,0,0.00
2013-11-15,53.3,40.2,29.5,39.0,34.1,27.0,93,80,57,29.86,29.79,5,0,0,0.00
2013-11-16,49.8,42.5,36.0,48.0,39.3,33.0,94,89,82,29.84,29.34,9,1,0,0.51
2013-11-17,53.9,49.2,38.3,51.0,46.4,33.0,95,90,81,29.37,29.16,3,1,0,0.02
2013-11-18,38.0,30.9,27.7,32.0,24.4,19.0,87,77,69,30.21,29.29,6,1,0,0.00
2013-11-19,33.7,28.5,22.9,27.0,20.3,17.0,86,72,54,30.40,30.21,5,0,0,0.00
2013-11-20,42.1,38.1,33.1,33.0,31.3,27.0,83,77,64,30.20,30.14,9,2,0,0.00
2013-11-21,39.1,35.5,28.5,35.0,32.6,26.0,92,89,83,30.34,30.13,3,0,0,0.03
2013-11-22,29.3,26.7,20.6,27.0,21.3,13.0,93,81,66,30.48,30.34,1,0,0,0.00
2013-11-23,20.1,13.5,11.2,14.0,9.1,5.0,88,82,70,30.68,30.39,4,0,0,0.00
2013-11-24,22.1,15.5,9.7,9.0,6.4,3.0,84,68,50,30.65,30.01,7,1,0,0.00
2013-11-25,35.3,30.4,22.3,29.0,22.1,8.0,81,72,55,30.00,29.77,11,2,0,0.01
2013-11-26,34.1,22.2,13.9,27.0,15.5,6.0,88,75,64,30.20,29.86,2,0,0,0.00
2013-11-27,23.6,21.0,16.3,18.0,16.1,13.0,90,82,65,30.28,30.17,13,1,0,0.00
2013-11-28,25.1,18.9,12.6,18.0,14.8,10.0,92,84,70,30.49,30.22,0,0,0,0.00
2013-11-29,27.2,21.4,11.5,21.0,16.4,9.0,92,81,68,30.62,30.35,7,0,0,0.00
2013-11-30,33.6,29.6,25.2,30.0,23.8,18.0,92,79,71,30.34,30.06,7,1,0,0.03